Time;durP1;ratioP1;P1;durP2;ratioP2;P2;SDS_P1;SDS_P2;PMS_P1;PMS_P2;Temp;Humidity;BMP_temperature;BMP_pressure;BME280_temperature;BME280_humidity;BME280_pressure;Samples;Min_cycle;Max_cycle;Signal;HPM_P1;HPM_P2
2023/12/19 00:32:39;;;;;;;;;;;6.70;99.90;;;;;;8395426;28;20299;-70
2023/12/19 00:36:41;;;;;;;;;;;6.70;99.90;;;;;;8422971;28;20027;-70
2023/12/19 00:40:44;;;;;;;;;;;6.70;99.90;;;;;;8425799;28;19928;-70
2023/12/19 00:44:45;;;;;;;;;;;6.70;99.90;;;;;;8422625;28;19924;-70
2023/12/19 00:48:47;;;;;;;;;;;6.70;99.90;;;;;;8430508;28;20410;-70
2023/12/19 00:52:49;;;;;;;;;;;6.70;99.90;;;;;;8425429;28;19959;-70
2023/12/19 00:56:51;;;;;;;;;;;6.70;99.90;;;;;;8425726;28;21478;-70
2023/12/19 01:00:52;;;;;;;;;;;6.80;99.90;;;;;;8427554;28;19939;-70
2023/12/19 01:04:57;;;;;;;;;;;6.80;99.90;;;;;;8420419;28;20026;-70
2023/12/19 01:08:59;;;;;;;;;;;6.80;99.90;;;;;;8422657;28;19939;-70
2023/12/19 01:13:01;;;;;;;;;;;6.80;99.90;;;;;;8424185;28;19939;-70
2023/12/19 01:17:02;;;;;;;;;;;6.80;99.90;;;;;;8420351;28;19939;-70
2023/12/19 01:21:05;;;;;;;;;;;6.80;99.90;;;;;;8419370;28;19932;-70
2023/12/19 01:25:06;;;;;;;;;;;6.80;99.90;;;;;;8418542;28;21726;-70
2023/12/19 01:29:08;;;;;;;;;;;6.80;99.90;;;;;;8420955;28;19973;-70
2023/12/19 01:33:10;;;;;;;;;;;6.80;99.90;;;;;;8413200;28;19936;-70
2023/12/19 01:37:12;;;;;;;;;;;6.80;99.90;;;;;;8425909;28;20302;-70
2023/12/19 01:41:14;;;;;;;;;;;6.80;99.90;;;;;;8421827;28;19924;-70
2023/12/19 01:45:16;;;;;;;;;;;6.80;99.90;;;;;;8419868;28;19924;-70
2023/12/19 01:49:18;;;;;;;;;;;6.80;99.90;;;;;;8422901;28;20287;-70
2023/12/19 01:53:21;;;;;;;;;;;6.90;99.90;;;;;;8416773;28;19924;-70
2023/12/19 01:57:22;;;;;;;;;;;6.90;99.90;;;;;;8424891;28;19977;-70
2023/12/19 02:01:24;;;;;;;;;;;6.90;99.90;;;;;;8418747;28;19931;-70
2023/12/19 02:05:26;;;;;;;;;;;6.90;99.90;;;;;;8416642;28;19924;-70
2023/12/19 02:09:28;;;;;;;;;;;6.80;99.90;;;;;;8422569;28;19924;-70
2023/12/19 02:13:30;;;;;;;;;;;6.80;99.90;;;;;;8418040;28;19978;-70
2023/12/19 02:17:31;;;;;;;;;;;6.90;99.90;;;;;;8419310;28;20291;-70
2023/12/19 02:21:34;;;;;;;;;;;6.90;99.90;;;;;;8419444;28;19924;-70
2023/12/19 02:25:36;;;;;;;;;;;6.90;99.90;;;;;;8413998;28;20290;-69
2023/12/19 02:29:37;;;;;;;;;;;6.90;99.90;;;;;;8416979;28;19928;-69
2023/12/19 02:33:40;;;;;;;;;;;6.90;99.90;;;;;;8421006;28;19924;-70
2023/12/19 02:37:42;;;;;;;;;;;6.90;99.90;;;;;;8422043;28;19971;-70
2023/12/19 02:41:44;;;;;;;;;;;7.00;99.90;;;;;;8422758;28;20348;-70
2023/12/19 02:45:45;;;;;;;;;;;7.00;99.90;;;;;;8414334;28;19932;-70
2023/12/19 02:49:47;;;;;;;;;;;7.00;99.90;;;;;;8416019;28;20019;-70
2023/12/19 02:53:49;;;;;;;;;;;7.00;99.90;;;;;;8417248;28;19928;-70
2023/12/19 03:02:58;;;;;;;;;;;7.00;99.90;;;;;;8422325;28;19939;-69
2023/12/19 03:07:00;;;;;;;;;;;7.00;99.90;;;;;;8414857;28;19932;-70
2023/12/19 03:11:02;;;;;;;;;;;7.10;99.90;;;;;;8422779;28;19931;-69
2023/12/19 03:15:05;;;;;;;;;;;7.10;99.90;;;;;;8421966;28;19924;-70
2023/12/19 03:19:06;;;;;;;;;;;7.10;99.90;;;;;;8425030;28;19984;-69
2023/12/19 03:23:08;;;;;;;;;;;7.10;99.90;;;;;;8421750;28;20003;-69
2023/12/19 03:27:10;;;;;;;;;;;7.10;99.90;;;;;;8422179;28;19970;-70
2023/12/19 03:31:12;;;;;;;;;;;7.20;99.90;;;;;;8425446;28;19931;-69
2023/12/19 03:35:14;;;;;;;;;;;7.20;99.90;;;;;;8433455;28;19963;-70
2023/12/19 03:39:15;;;;;;;;;;;7.20;99.90;;;;;;8428798;28;19928;-70
2023/12/19 03:43:17;;;;;;;;;;;7.20;99.90;;;;;;8426131;28;19931;-69
2023/12/19 03:47:19;;;;;;;;;;;7.20;99.90;;;;;;8424693;28;20379;-70
2023/12/19 03:51:20;;;;;;;;;;;7.20;99.90;;;;;;8429563;28;19928;-70
2023/12/19 03:55:22;;;;;;;;;;;7.20;99.90;;;;;;8432231;28;20252;-70
2023/12/19 03:59:24;;;;;;;;;;;7.20;99.90;;;;;;8427115;28;20036;-70
2023/12/19 04:03:25;;;;;;;;;;;7.30;99.90;;;;;;8429784;28;20257;-70
2023/12/19 04:07:27;;;;;;;;;;;7.30;99.90;;;;;;8428663;28;19924;-70
2023/12/19 04:11:29;;;;;;;;;;;7.30;99.90;;;;;;8418347;28;19959;-70
2023/12/19 04:15:30;;;;;;;;;;;7.30;99.90;;;;;;8425182;28;19924;-70
2023/12/19 04:19:32;;;;;;;;;;;7.30;99.90;;;;;;8428336;28;19932;-69
2023/12/19 04:23:34;;;;;;;;;;;7.30;99.90;;;;;;8425817;28;19924;-69
2023/12/19 04:27:36;;;;;;;;;;;7.30;99.90;;;;;;8420735;28;20009;-69
2023/12/19 04:31:39;;;;;;;;;;;7.40;99.90;;;;;;8430996;28;19932;-69
2023/12/19 04:35:41;;;;;;;;;;;7.40;99.90;;;;;;8423890;28;19977;-69
2023/12/19 04:39:42;;;;;;;;;;;7.40;99.90;;;;;;8428569;28;19924;-69
2023/12/19 04:43:44;;;;;;;;;;;7.40;99.90;;;;;;8433123;28;20044;-69
2023/12/19 04:47:46;;;;;;;;;;;7.40;99.90;;;;;;8425528;28;20375;-69
2023/12/19 04:51:47;;;;;;;;;;;7.40;99.90;;;;;;8446513;27;20379;-69
2023/12/19 04:55:49;;;;;;;;;;;7.40;99.90;;;;;;8424026;28;19933;-69
2023/12/19 04:59:51;;;;;;;;;;;7.50;99.90;;;;;;8418072;28;19935;-69
2023/12/19 05:03:52;;;;;;;;;;;7.50;99.90;;;;;;8427379;28;19971;-69
2023/12/19 05:07:54;;;;;;;;;;;7.50;99.90;;;;;;8421408;28;19939;-70
2023/12/19 05:11:55;;;;;;;;;;;7.50;99.90;;;;;;8425736;28;19986;-70
2023/12/19 05:15:57;;;;;;;;;;;7.50;99.90;;;;;;8424271;28;20294;-70
2023/12/19 05:19:59;;;;;;;;;;;7.50;99.90;;;;;;8419221;28;19932;-69
2023/12/19 05:24:01;;;;;;;;;;;7.40;99.90;;;;;;8421304;28;20444;-70
2023/12/19 05:28:02;;;;;;;;;;;7.40;99.90;;;;;;8416825;28;20472;-70
2023/12/19 05:32:04;;;;;;;;;;;7.50;99.90;;;;;;8402547;28;19972;-70
2023/12/19 05:36:06;;;;;;;;;;;7.50;99.90;;;;;;8420270;28;19947;-70
2023/12/19 05:40:08;;;;;;;;;;;7.50;99.90;;;;;;8418313;28;19939;-70
2023/12/19 05:44:11;;;;;;;;;;;7.50;99.90;;;;;;8422774;28;19931;-69
2023/12/19 05:48:13;;;;;;;;;;;7.60;99.90;;;;;;8424787;28;19953;-69
2023/12/19 05:52:15;;;;;;;;;;;7.60;99.90;;;;;;8422576;28;19968;-70
2023/12/19 05:56:17;;;;;;;;;;;7.60;99.90;;;;;;8426490;28;19956;-70
2023/12/19 06:00:18;;;;;;;;;;;7.70;99.90;;;;;;8401741;28;20417;-70
2023/12/19 06:04:20;;;;;;;;;;;7.70;99.90;;;;;;8413707;28;19924;-69
2023/12/19 06:08:22;;;;;;;;;;;7.70;99.90;;;;;;8407381;28;19955;-70
2023/12/19 06:12:24;;;;;;;;;;;7.70;99.90;;;;;;8398577;28;19925;-70
2023/12/19 06:16:26;;;;;;;;;;;7.70;99.90;;;;;;8391590;28;19924;-70
2023/12/19 06:20:28;;;;;;;;;;;7.70;99.90;;;;;;8444573;27;20430;-70
2023/12/19 06:24:29;;;;;;;;;;;7.70;99.90;;;;;;8409497;28;20326;-70
2023/12/19 06:28:32;;;;;;;;;;;7.70;99.90;;;;;;8410535;28;19933;-69
2023/12/19 06:32:34;;;;;;;;;;;7.70;99.90;;;;;;8418245;28;19963;-69
2023/12/19 06:36:38;;;;;;;;;;;7.70;99.90;;;;;;8433120;28;20387;-69
2023/12/19 06:40:40;;;;;;;;;;;7.70;99.90;;;;;;8414265;28;20031;-69
2023/12/19 06:44:42;;;;;;;;;;;7.70;99.90;;;;;;8420703;28;19925;-69
2023/12/19 06:48:44;;;;;;;;;;;7.70;99.90;;;;;;8415132;28;20439;-70
2023/12/19 06:52:46;;;;;;;;;;;7.70;99.90;;;;;;8411348;28;20363;-69
2023/12/19 06:56:48;;;;;;;;;;;7.80;99.90;;;;;;8412495;28;19931;-69
2023/12/19 07:00:51;;;;;;;;;;;7.80;99.90;;;;;;8413029;28;19928;-69
2023/12/19 07:04:53;;;;;;;;;;;7.80;99.90;;;;;;8406434;28;19978;-69
2023/12/19 07:08:55;;;;;;;;;;;7.80;99.90;;;;;;8413874;28;19924;-69
2023/12/19 07:12:58;;;;;;;;;;;7.80;99.90;;;;;;8404428;28;19931;-69
2023/12/19 07:16:59;;;;;;;;;;;7.80;99.90;;;;;;8422795;28;19924;-69
2023/12/19 07:21:01;;;;;;;;;;;7.90;99.90;;;;;;8427697;28;20364;-69
2023/12/19 07:25:03;;;;;;;;;;;7.90;99.90;;;;;;8430113;28;19989;-69
2023/12/19 07:29:08;;;;;;;;;;;7.90;99.90;;;;;;8431975;28;20304;-69
2023/12/19 07:33:09;;;;;;;;;;;7.90;99.90;;;;;;8436977;28;20193;-69
2023/12/19 07:37:11;;;;;;;;;;;8.00;99.90;;;;;;8424527;28;19964;-69
2023/12/19 07:41:13;;;;;;;;;;;8.00;99.90;;;;;;8431381;28;19989;-69
2023/12/19 07:45:15;;;;;;;;;;;8.00;99.90;;;;;;8429517;28;19925;-69
2023/12/19 07:49:17;;;;;;;;;;;8.00;99.90;;;;;;8440891;28;19924;-69
2023/12/19 07:53:19;;;;;;;;;;;8.00;99.90;;;;;;8442459;28;20405;-69
2023/12/19 07:57:22;;;;;;;;;;;8.00;99.90;;;;;;8428692;28;20143;-69
2023/12/19 08:01:25;;;;;;;;;;;8.00;99.90;;;;;;8429373;28;19932;-69
2023/12/19 08:05:27;;;;;;;;;;;8.10;99.90;;;;;;8425931;28;20306;-69
2023/12/19 08:09:29;;;;;;;;;;;8.10;99.90;;;;;;8438513;28;19924;-69
2023/12/19 08:13:31;;;;;;;;;;;8.10;99.90;;;;;;8432068;28;19970;-69
2023/12/19 08:17:33;;;;;;;;;;;8.10;99.90;;;;;;8424869;28;19928;-70
2023/12/19 08:21:46;;;;;;;;;;;8.10;99.90;;;;;;8435989;28;19930;-69
2023/12/19 08:25:48;;;;;;;;;;;8.10;99.90;;;;;;8419275;28;20380;-69
2023/12/19 08:29:49;;;;;;;;;;;8.10;99.90;;;;;;8428299;28;19924;-69
2023/12/19 08:33:51;;;;;;;;;;;8.10;99.90;;;;;;8418118;28;20395;-69
2023/12/19 08:37:53;;;;;;;;;;;8.20;99.90;;;;;;8422798;28;20387;-69
2023/12/19 08:41:54;;;;;;;;;;;8.20;99.90;;;;;;8419141;28;19935;-69
2023/12/19 08:45:56;;;;;;;;;;;8.20;99.90;;;;;;8415362;28;19924;-69
2023/12/19 08:49:59;;;;;;;;;;;8.20;99.90;;;;;;8433581;28;20387;-69
2023/12/19 08:54:01;;;;;;;;;;;8.20;99.90;;;;;;8460877;27;19984;-69
2023/12/19 08:58:03;;;;;;;;;;;8.20;99.90;;;;;;8432806;28;19931;-69
2023/12/19 09:02:05;;;;;;;;;;;8.20;99.90;;;;;;8430002;28;20372;-69
2023/12/19 09:06:07;;;;;;;;;;;8.20;99.90;;;;;;8431229;28;19932;-69
2023/12/19 09:10:10;;;;;;;;;;;8.20;99.90;;;;;;8427040;28;20368;-69
2023/12/19 09:14:12;;;;;;;;;;;8.30;99.90;;;;;;8422374;28;19923;-69
2023/12/19 09:18:14;;;;;;;;;;;8.20;99.90;;;;;;8416026;28;20433;-69
2023/12/19 09:22:16;;;;;;;;;;;8.30;99.90;;;;;;8421541;28;20368;-69
2023/12/19 09:26:17;;;;;;;;;;;8.20;99.90;;;;;;8427226;28;19925;-69
2023/12/19 09:30:19;;;;;;;;;;;8.20;99.90;;;;;;8429060;28;19935;-69
2023/12/19 09:34:21;;;;;;;;;;;8.20;99.90;;;;;;8436806;28;20344;-69
2023/12/19 09:38:23;;;;;;;;;;;8.20;99.90;;;;;;8433271;28;19928;-69
2023/12/19 09:42:25;;;;;;;;;;;8.20;99.90;;;;;;8429775;28;19987;-70
2023/12/19 09:46:29;;;;;;;;;;;8.20;99.90;;;;;;8441805;28;19932;-70
2023/12/19 09:50:32;;;;;;;;;;;8.20;99.90;;;;;;8428530;28;20615;-69
2023/12/19 09:54:35;;;;;;;;;;;8.20;99.90;;;;;;8431642;28;19924;-69
2023/12/19 09:58:40;;;;;;;;;;;8.20;99.90;;;;;;8431287;28;19928;-69
2023/12/19 10:02:42;;;;;;;;;;;8.20;99.90;;;;;;8426524;28;19929;-70
2023/12/19 10:06:54;;;;;;;;;;;8.20;99.90;;;;;;8430275;28;19980;-70
2023/12/19 10:10:56;;;;;;;;;;;8.20;99.90;;;;;;8434835;28;19924;-69
2023/12/19 10:15:12;;;;;;;;;;;8.20;99.90;;;;;;8438713;28;20793;-70
2023/12/19 10:19:24;;;;;;;;;;;8.30;99.90;;;;;;8440950;28;19977;-70
2023/12/19 10:23:26;;;;;;;;;;;8.30;99.90;;;;;;8429944;28;19935;-70
2023/12/19 10:27:27;;;;;;;;;;;8.20;99.90;;;;;;8439502;28;19927;-70
2023/12/19 10:31:29;;;;;;;;;;;8.20;99.90;;;;;;8426815;28;19928;-70
2023/12/19 10:35:34;;;;;;;;;;;8.20;99.90;;;;;;8422621;28;19928;-70
2023/12/19 10:39:36;;;;;;;;;;;8.20;99.90;;;;;;8438590;28;19924;-70
2023/12/19 10:43:38;;;;;;;;;;;8.20;99.90;;;;;;8435869;28;19990;-70
2023/12/19 10:47:41;;;;;;;;;;;8.20;99.90;;;;;;8434645;28;19978;-70
2023/12/19 10:51:45;;;;;;;;;;;8.30;99.90;;;;;;8444786;28;20359;-70
2023/12/19 10:55:50;;;;;;;;;;;8.30;99.90;;;;;;8449866;28;20379;-70
2023/12/19 10:59:54;;;;;;;;;;;8.30;99.90;;;;;;8439624;28;19927;-70
2023/12/19 11:03:59;;;;;;;;;;;8.30;99.90;;;;;;8441273;28;19931;-70
2023/12/19 11:08:08;;;;;;;;;;;8.30;99.90;;;;;;8442888;28;19928;-70
2023/12/19 11:12:10;;;;;;;;;;;8.40;99.90;;;;;;8440791;28;19928;-70
2023/12/19 11:16:34;;;;;;;;;;;8.40;99.90;;;;;;8429752;28;19928;-70
2023/12/19 11:20:41;;;;;;;;;;;8.40;99.90;;;;;;8436669;28;19969;-70
2023/12/19 11:25:01;;;;;;;;;;;8.40;99.90;;;;;;8432610;28;19930;-70
2023/12/19 11:29:03;;;;;;;;;;;8.40;99.90;;;;;;8436662;28;19923;-70
2023/12/19 11:33:05;;;;;;;;;;;8.40;99.90;;;;;;8447998;28;19924;-70
2023/12/19 11:37:07;;;;;;;;;;;8.40;99.90;;;;;;8431772;28;19927;-70
2023/12/19 11:41:09;;;;;;;;;;;8.40;99.90;;;;;;8422949;28;19931;-70
2023/12/19 11:45:17;;;;;;;;;;;8.40;99.90;;;;;;8425228;28;20279;-70
2023/12/19 11:49:35;;;;;;;;;;;8.40;99.90;;;;;;8425473;28;19959;-71
2023/12/19 11:53:37;;;;;;;;;;;8.40;99.90;;;;;;8453208;27;20005;-70
2023/12/19 11:57:40;;;;;;;;;;;8.40;99.90;;;;;;8424913;28;19924;-70
2023/12/19 12:01:47;;;;;;;;;;;8.40;99.90;;;;;;8435219;28;19950;-70
2023/12/19 12:05:50;;;;;;;;;;;8.40;99.90;;;;;;8423649;28;19932;-71
2023/12/19 12:09:59;;;;;;;;;;;8.40;99.90;;;;;;8433970;28;19961;-71
2023/12/19 12:14:01;;;;;;;;;;;8.50;99.90;;;;;;8413419;28;20359;-71
2023/12/19 12:18:04;;;;;;;;;;;8.50;99.90;;;;;;8459506;27;19951;-71
2023/12/19 12:22:13;;;;;;;;;;;8.50;99.90;;;;;;8408574;28;19985;-71
2023/12/19 12:26:18;;;;;;;;;;;8.50;99.90;;;;;;8418933;28;19924;-71
2023/12/19 12:30:20;;;;;;;;;;;8.50;99.90;;;;;;8436824;28;19931;-72
2023/12/19 12:34:22;;;;;;;;;;;8.50;99.90;;;;;;8414508;28;20411;-71
2023/12/19 12:38:25;;;;;;;;;;;8.50;99.90;;;;;;8427676;28;20309;-71
2023/12/19 12:42:26;;;;;;;;;;;8.50;99.90;;;;;;8430196;27;19928;-71
2023/12/19 12:46:28;;;;;;;;;;;8.50;99.90;;;;;;8430609;28;20584;-71
2023/12/19 12:50:30;;;;;;;;;;;8.50;99.90;;;;;;8443527;28;19927;-71
2023/12/19 12:54:31;;;;;;;;;;;8.50;99.90;;;;;;8435977;28;19927;-72
2023/12/19 12:58:34;;;;;;;;;;;8.50;99.90;;;;;;8422340;28;20359;-71
2023/12/19 13:02:38;;;;;;;;;;;8.50;99.90;;;;;;8432119;28;19943;-72
2023/12/19 13:06:46;;;;;;;;;;;8.50;99.90;;;;;;8432039;28;19931;-72
2023/12/19 13:10:48;;;;;;;;;;;8.50;99.90;;;;;;8423977;28;19925;-72
2023/12/19 13:14:50;;;;;;;;;;;8.50;99.90;;;;;;8434471;28;19924;-72
2023/12/19 13:18:51;;;;;;;;;;;8.50;99.90;;;;;;8435976;28;19932;-72
2023/12/19 13:22:53;;;;;;;;;;;8.50;99.90;;;;;;8470713;27;20421;-72
2023/12/19 13:26:55;;;;;;;;;;;8.50;99.90;;;;;;8434537;28;19923;-72
2023/12/19 13:30:56;;;;;;;;;;;8.50;99.90;;;;;;8450574;28;19924;-71
2023/12/19 13:34:58;;;;;;;;;;;8.50;99.90;;;;;;8431943;28;20363;-72
2023/12/19 13:39:00;;;;;;;;;;;8.50;99.90;;;;;;8428866;28;20012;-72
2023/12/19 13:43:04;;;;;;;;;;;8.50;99.90;;;;;;8437166;28;20409;-72
2023/12/19 13:47:06;;;;;;;;;;;8.50;99.90;;;;;;8445770;28;20385;-72
2023/12/19 13:51:08;;;;;;;;;;;8.50;99.90;;;;;;8441254;28;20597;-72
2023/12/19 13:55:10;;;;;;;;;;;8.50;99.90;;;;;;8435804;28;20283;-72
2023/12/19 13:59:11;;;;;;;;;;;8.50;99.90;;;;;;8444333;28;20397;-72
2023/12/19 14:03:14;;;;;;;;;;;8.50;99.90;;;;;;8430815;28;20382;-72
2023/12/19 14:07:18;;;;;;;;;;;8.50;99.90;;;;;;8424820;28;19924;-72
2023/12/19 14:11:20;;;;;;;;;;;8.50;99.90;;;;;;8433813;28;19924;-72
2023/12/19 14:15:22;;;;;;;;;;;8.50;99.90;;;;;;8442470;28;20407;-72
2023/12/19 14:19:24;;;;;;;;;;;8.60;99.90;;;;;;8442403;28;19928;-72
2023/12/19 14:23:25;;;;;;;;;;;8.60;99.90;;;;;;8435637;28;19979;-72
2023/12/19 14:27:27;;;;;;;;;;;8.60;99.90;;;;;;8445438;28;19931;-72
2023/12/19 14:31:29;;;;;;;;;;;8.50;99.90;;;;;;8435216;28;20693;-72
2023/12/19 14:35:32;;;;;;;;;;;8.60;99.90;;;;;;8426754;28;19924;-72
2023/12/19 14:39:33;;;;;;;;;;;8.60;99.90;;;;;;8422070;28;19925;-72
2023/12/19 14:43:36;;;;;;;;;;;8.50;99.90;;;;;;8416670;28;20019;-72
2023/12/19 14:47:37;;;;;;;;;;;8.60;99.90;;;;;;8419771;28;19935;-72
2023/12/19 14:51:42;;;;;;;;;;;8.60;99.90;;;;;;8433674;28;19936;-72
2023/12/19 14:55:44;;;;;;;;;;;8.60;99.90;;;;;;8427698;28;20352;-72
2023/12/19 14:59:45;;;;;;;;;;;8.60;99.90;;;;;;8420515;28;19924;-73
2023/12/19 15:03:48;;;;;;;;;;;8.70;99.90;;;;;;8436213;28;19924;-72
2023/12/19 15:07:50;;;;;;;;;;;8.70;99.90;;;;;;8419035;28;19932;-72
2023/12/19 15:11:51;;;;;;;;;;;8.80;99.90;;;;;;8438751;28;20589;-72
2023/12/19 15:15:53;;;;;;;;;;;8.80;99.90;;;;;;8423306;28;19924;-72
2023/12/19 15:19:55;;;;;;;;;;;8.80;99.90;;;;;;8416718;28;19923;-72
2023/12/19 15:23:57;;;;;;;;;;;8.90;99.90;;;;;;8437382;28;19932;-72
2023/12/19 15:27:59;;;;;;;;;;;8.90;99.90;;;;;;8441760;28;19924;-72
2023/12/19 15:32:08;;;;;;;;;;;8.90;99.90;;;;;;8439951;28;19928;-72
2023/12/19 15:36:17;;;;;;;;;;;8.90;99.90;;;;;;8435208;28;20271;-72
2023/12/19 15:40:19;;;;;;;;;;;9.00;99.90;;;;;;8424198;28;19977;-73
2023/12/19 15:44:21;;;;;;;;;;;9.00;99.90;;;;;;8432402;28;19924;-73
2023/12/19 15:48:23;;;;;;;;;;;9.00;99.90;;;;;;8434832;28;19981;-72
2023/12/19 15:52:25;;;;;;;;;;;9.00;99.90;;;;;;8437932;28;20433;-72
2023/12/19 15:56:31;;;;;;;;;;;9.00;99.90;;;;;;8438427;28;19975;-72
2023/12/19 16:00:33;;;;;;;;;;;9.10;99.90;;;;;;8434273;28;20367;-72
2023/12/19 16:04:35;;;;;;;;;;;9.10;99.90;;;;;;8436518;28;19924;-71
2023/12/19 16:08:45;;;;;;;;;;;9.10;99.90;;;;;;8423403;28;19986;-72
2023/12/19 16:12:47;;;;;;;;;;;9.10;99.90;;;;;;8429719;28;19977;-72
2023/12/19 16:16:49;;;;;;;;;;;9.10;99.90;;;;;;8434931;28;19924;-72
2023/12/19 16:20:51;;;;;;;;;;;9.10;99.90;;;;;;8432995;28;19924;-72
2023/12/19 16:24:54;;;;;;;;;;;9.10;99.90;;;;;;8427057;28;19924;-72
2023/12/19 16:28:56;;;;;;;;;;;9.00;99.90;;;;;;8437378;28;19928;-72
2023/12/19 16:32:58;;;;;;;;;;;9.00;99.90;;;;;;8418874;28;19924;-72
2023/12/19 16:37:00;;;;;;;;;;;9.00;99.90;;;;;;8391433;28;19982;-72
2023/12/19 16:41:01;;;;;;;;;;;8.90;99.90;;;;;;8413612;28;20045;-72
2023/12/19 16:45:03;;;;;;;;;;;8.90;99.90;;;;;;8430203;28;19931;-72
2023/12/19 16:49:07;;;;;;;;;;;8.90;99.90;;;;;;8440944;28;19939;-72
2023/12/19 16:53:09;;;;;;;;;;;8.90;99.90;;;;;;8427065;28;20328;-72
2023/12/19 16:57:12;;;;;;;;;;;8.90;99.90;;;;;;8431190;28;19923;-72
2023/12/19 17:01:14;;;;;;;;;;;8.90;99.90;;;;;;8428344;28;19981;-72
2023/12/19 17:05:17;;;;;;;;;;;8.90;99.90;;;;;;8425611;28;20252;-72
2023/12/19 17:09:18;;;;;;;;;;;8.90;99.90;;;;;;8431967;28;19924;-72
2023/12/19 17:13:20;;;;;;;;;;;8.90;99.90;;;;;;8425956;28;19924;-72
2023/12/19 17:17:22;;;;;;;;;;;8.90;99.90;;;;;;8418903;28;19932;-72
2023/12/19 17:21:23;;;;;;;;;;;8.90;99.90;;;;;;8431198;28;19924;-72
2023/12/19 17:25:25;;;;;;;;;;;9.00;99.90;;;;;;8433108;28;19991;-72
2023/12/19 17:29:27;;;;;;;;;;;9.00;99.90;;;;;;8430313;28;20441;-73
2023/12/19 17:33:29;;;;;;;;;;;9.00;99.90;;;;;;8420063;28;19928;-73
2023/12/19 17:37:31;;;;;;;;;;;9.00;99.90;;;;;;8427054;28;20375;-72
2023/12/19 17:41:37;;;;;;;;;;;9.00;99.90;;;;;;8452513;27;19935;-72
2023/12/19 17:45:40;;;;;;;;;;;9.00;99.90;;;;;;8410261;28;20303;-72
2023/12/19 17:49:42;;;;;;;;;;;9.00;99.90;;;;;;8439375;28;19924;-72
2023/12/19 17:53:43;;;;;;;;;;;9.00;99.90;;;;;;8437462;28;20011;-72
2023/12/19 17:57:45;;;;;;;;;;;9.00;99.90;;;;;;8435036;28;19934;-72
2023/12/19 18:01:47;;;;;;;;;;;9.00;99.90;;;;;;8434523;28;19930;-72
2023/12/19 18:05:53;;;;;;;;;;;9.00;99.90;;;;;;8431833;28;20326;-72
2023/12/19 18:09:55;;;;;;;;;;;9.00;99.90;;;;;;8425301;28;19932;-72
2023/12/19 18:13:57;;;;;;;;;;;9.00;99.90;;;;;;8415672;28;19977;-72
2023/12/19 18:17:59;;;;;;;;;;;9.00;99.90;;;;;;8427347;27;20391;-72
2023/12/19 18:22:01;;;;;;;;;;;9.00;99.90;;;;;;8416850;28;19928;-72
2023/12/19 18:26:05;;;;;;;;;;;9.00;99.90;;;;;;8432859;28;19932;-72
2023/12/19 18:30:07;;;;;;;;;;;9.00;99.90;;;;;;8420647;28;20369;-72
2023/12/19 18:34:09;;;;;;;;;;;9.00;99.90;;;;;;8439218;28;19924;-72
2023/12/19 18:38:11;;;;;;;;;;;9.00;99.90;;;;;;8425136;28;19977;-72
2023/12/19 18:42:13;;;;;;;;;;;8.90;99.90;;;;;;8413648;28;20101;-72
2023/12/19 18:46:19;;;;;;;;;;;8.90;99.90;;;;;;8428685;28;19981;-72
2023/12/19 18:50:21;;;;;;;;;;;8.90;99.90;;;;;;8431976;28;19935;-72
2023/12/19 18:54:22;;;;;;;;;;;8.90;99.90;;;;;;8421780;28;19956;-72
2023/12/19 18:58:24;;;;;;;;;;;8.90;99.90;;;;;;8442818;28;19953;-72
2023/12/19 19:02:26;;;;;;;;;;;8.90;99.90;;;;;;8433227;28;19924;-72
2023/12/19 19:06:27;;;;;;;;;;;8.90;99.90;;;;;;8459767;28;19924;-72
2023/12/19 19:10:29;;;;;;;;;;;8.90;99.90;;;;;;8431866;28;20295;-72
2023/12/19 19:14:31;;;;;;;;;;;8.90;99.90;;;;;;8428193;28;19928;-72
2023/12/19 19:18:33;;;;;;;;;;;8.90;99.90;;;;;;8430318;28;19935;-72
2023/12/19 19:22:36;;;;;;;;;;;8.90;99.90;;;;;;8430425;28;19936;-72
2023/12/19 19:26:38;;;;;;;;;;;8.90;99.90;;;;;;8446961;28;20351;-72
2023/12/19 19:30:41;;;;;;;;;;;8.90;99.90;;;;;;8441192;28;20364;-72
2023/12/19 19:34:43;;;;;;;;;;;8.90;99.90;;;;;;8443636;28;19931;-72
2023/12/19 19:38:45;;;;;;;;;;;8.90;99.90;;;;;;8425408;28;19938;-72
2023/12/19 19:42:47;;;;;;;;;;;8.90;99.90;;;;;;8424596;28;20284;-72
2023/12/19 19:51:52;;;;;;;;;;;8.80;99.90;;;;;;8439894;28;19922;-72
2023/12/19 20:00:59;;;;;;;;;;;8.70;99.90;;;;;;8419136;28;19924;-72
2023/12/19 20:25:15;;;;;;;;;;;8.50;99.90;;;;;;8425939;28;19946;-72
2023/12/19 20:29:19;;;;;;;;;;;8.50;99.90;;;;;;8440019;28;20268;-72
2023/12/19 20:33:20;;;;;;;;;;;8.50;99.90;;;;;;8428567;28;19932;-72
2023/12/19 20:37:22;;;;;;;;;;;8.40;99.90;;;;;;8437321;28;19924;-72
2023/12/19 20:41:24;;;;;;;;;;;8.30;99.90;;;;;;8430019;28;19924;-72
2023/12/19 20:45:26;;;;;;;;;;;8.30;99.90;;;;;;8431376;28;19979;-72
2023/12/19 20:49:40;;;;;;;;;;;8.20;99.90;;;;;;8424581;28;19924;-72
2023/12/19 20:53:41;;;;;;;;;;;8.20;99.90;;;;;;8410737;28;19924;-72
2023/12/19 20:57:43;;;;;;;;;;;8.10;99.90;;;;;;8433649;28;19924;-72
2023/12/19 21:01:45;;;;;;;;;;;8.10;99.90;;;;;;8420706;28;19931;-72
2023/12/19 21:05:47;;;;;;;;;;;8.10;99.90;;;;;;8421534;28;19972;-72
2023/12/19 21:09:49;;;;;;;;;;;8.00;99.90;;;;;;8434922;28;20420;-72
2023/12/19 21:13:51;;;;;;;;;;;8.00;99.90;;;;;;8440888;28;19924;-72
2023/12/19 21:17:53;;;;;;;;;;;8.00;99.90;;;;;;8426219;28;19924;-72
2023/12/19 21:21:55;;;;;;;;;;;7.90;99.90;;;;;;8444320;28;19931;-72
2023/12/19 21:25:57;;;;;;;;;;;7.90;99.90;;;;;;8423867;28;19958;-72
2023/12/19 21:29:58;;;;;;;;;;;7.90;99.90;;;;;;8422608;28;19931;-72
2023/12/19 21:34:06;;;;;;;;;;;7.80;99.90;;;;;;8417286;28;19967;-72
2023/12/19 21:38:07;;;;;;;;;;;7.80;99.90;;;;;;8433670;28;19923;-72
2023/12/19 21:42:09;;;;;;;;;;;7.70;99.90;;;;;;8427757;28;19924;-72
2023/12/19 21:46:11;;;;;;;;;;;7.70;99.90;;;;;;8431772;28;19930;-72
2023/12/19 21:50:15;;;;;;;;;;;7.60;99.90;;;;;;8427858;28;19924;-72
2023/12/19 21:54:18;;;;;;;;;;;7.60;99.90;;;;;;8423302;28;19931;-72
2023/12/19 21:58:20;;;;;;;;;;;7.60;99.90;;;;;;8436454;28;19924;-72
2023/12/19 22:02:22;;;;;;;;;;;7.50;99.90;;;;;;8431393;28;19924;-72
2023/12/19 22:06:23;;;;;;;;;;;7.40;99.90;;;;;;8428971;28;19924;-72
2023/12/19 22:10:28;;;;;;;;;;;7.40;99.90;;;;;;8423859;28;19938;-72
2023/12/19 22:14:29;;;;;;;;;;;7.30;99.90;;;;;;8459309;27;19931;-72
2023/12/19 22:18:37;;;;;;;;;;;7.30;99.90;;;;;;8432092;28;19924;-72
2023/12/19 22:22:39;;;;;;;;;;;7.30;99.90;;;;;;8432384;28;19950;-72
2023/12/19 22:26:41;;;;;;;;;;;7.30;99.90;;;;;;8425746;28;20516;-72
2023/12/19 22:30:43;;;;;;;;;;;7.20;99.90;;;;;;8433910;28;19928;-72
2023/12/19 22:39:56;;;;;;;;;;;7.10;99.90;;;;;;8436126;28;20466;-72
2023/12/19 22:43:57;;;;;;;;;;;7.00;99.90;;;;;;8430904;28;20325;-72
2023/12/19 22:47:59;;;;;;;;;;;6.90;99.90;;;;;;8429956;28;19924;-72
2023/12/19 22:52:01;;;;;;;;;;;6.80;99.90;;;;;;8423586;28;19978;-72
2023/12/19 22:56:03;;;;;;;;;;;6.80;99.90;;;;;;8431913;28;19930;-72
2023/12/19 23:00:16;;;;;;;;;;;6.70;99.90;;;;;;8436950;28;20259;-72
2023/12/19 23:04:18;;;;;;;;;;;6.70;99.90;;;;;;8432165;28;19928;-71
2023/12/19 23:08:20;;;;;;;;;;;6.70;99.90;;;;;;8437344;28;19968;-71
2023/12/19 23:12:21;;;;;;;;;;;6.60;99.90;;;;;;8419552;28;19930;-71
2023/12/19 23:16:23;;;;;;;;;;;6.60;99.90;;;;;;8438415;28;21057;-71
2023/12/19 23:20:25;;;;;;;;;;;6.60;99.90;;;;;;8434405;28;19924;-71
2023/12/19 23:24:27;;;;;;;;;;;6.50;99.90;;;;;;8425138;28;19932;-71
2023/12/19 23:28:30;;;;;;;;;;;6.60;99.90;;;;;;8419476;28;19931;-72
2023/12/19 23:32:33;;;;;;;;;;;6.60;99.90;;;;;;8429070;28;19967;-71
2023/12/19 23:36:35;;;;;;;;;;;6.60;99.90;;;;;;8451507;27;19956;-71
2023/12/19 23:40:36;;;;;;;;;;;6.70;99.90;;;;;;8463454;27;19932;-71
2023/12/19 23:44:38;;;;;;;;;;;6.70;99.90;;;;;;8438458;28;19940;-71
2023/12/19 23:48:39;;;;;;;;;;;6.70;99.90;;;;;;8443577;28;19931;-71
2023/12/19 23:52:41;;;;;;;;;;;6.70;99.90;;;;;;8419959;28;19924;-72
2023/12/19 23:56:43;;;;;;;;;;;6.70;99.90;;;;;;8427593;28;19932;-72
